RWL weather

Rawlins Municipal Airport/Harvey Field
Rawlins, Wyoming, United States

Public forecast

Using degrees Fahrenheit for public forecast. Weather courtesy of forecast.io.

Current aviation weather report (METAR) for Rawlins Municipal Airport/Harvey Field

Retrieved 2020/08/06 06:53 UTC (26 minutes ago):

KRWL 060653Z AUTO 06005KT 10SM CLR 18/07 A3012 RMK AO2 SLP083 T01830072 403220122

Aviation forecast (TAF) for Rawlins Municipal Airport/Harvey Field

Retrieved 2020/08/06 06:27 UTC (52 minutes ago):

TAF KRWL 060524Z 0606/0706 06010KT P6SM FEW100 FM061100 20005KT P6SM FEW120 FM061600 23015G24KT P6SM FEW150